sensor_id;sensor_type;location;lat;lon;timestamp;pressure;altitude;pressure_sealevel;temperature;humidity
17260;BME280;8746;49.230;9.220;2023-08-20T00:01:26;100137.47;;;22.80;100.00
17260;BME280;8746;49.230;9.220;2023-08-20T00:03:52;100140.44;;;22.77;100.00
17260;BME280;8746;49.230;9.220;2023-08-20T00:06:19;100127.88;;;22.87;100.00
17260;BME280;8746;49.230;9.220;2023-08-20T00:08:44;100134.63;;;22.72;100.00
17260;BME280;8746;49.230;9.220;2023-08-20T00:11:11;100131.63;;;22.65;100.00
17260;BME280;8746;49.230;9.220;2023-08-20T00:13:37;100128.78;;;22.67;100.00
17260;BME280;8746;49.230;9.220;2023-08-20T00:16:03;100136.00;;;22.66;100.00
17260;BME280;8746;49.230;9.220;2023-08-20T00:18:28;100139.44;;;22.68;100.00
17260;BME280;8746;49.230;9.220;2023-08-20T00:20:54;100135.63;;;22.71;100.00
17260;BME280;8746;49.230;9.220;2023-08-20T00:23:20;100135.72;;;22.69;100.00
17260;BME280;8746;49.230;9.220;2023-08-20T00:25:47;100137.59;;;22.69;100.00
17260;BME280;8746;49.230;9.220;2023-08-20T00:28:12;100141.09;;;22.69;100.00
17260;BME280;8746;49.230;9.220;2023-08-20T00:30:38;100139.28;;;22.70;100.00
17260;BME280;8746;49.230;9.220;2023-08-20T00:33:03;100141.97;;;22.70;100.00
17260;BME280;8746;49.230;9.220;2023-08-20T00:35:29;100150.19;;;22.68;100.00
17260;BME280;8746;49.230;9.220;2023-08-20T00:37:54;100151.31;;;22.66;100.00
17260;BME280;8746;49.230;9.220;2023-08-20T00:40:19;100147.59;;;22.67;100.00
17260;BME280;8746;49.230;9.220;2023-08-20T00:42:45;100145.22;;;22.64;100.00
17260;BME280;8746;49.230;9.220;2023-08-20T00:45:10;100144.03;;;22.56;100.00
17260;BME280;8746;49.230;9.220;2023-08-20T00:47:36;100145.31;;;22.52;100.00
17260;BME280;8746;49.230;9.220;2023-08-20T00:50:02;100144.72;;;22.49;100.00
17260;BME280;8746;49.230;9.220;2023-08-20T00:52:37;100145.72;;;22.36;100.00
17260;BME280;8746;49.230;9.220;2023-08-20T00:55:10;100149.38;;;22.25;100.00
17260;BME280;8746;49.230;9.220;2023-08-20T00:57:39;100144.69;;;22.28;100.00
17260;BME280;8746;49.230;9.220;2023-08-20T01:00:06;100157.81;;;22.21;100.00
17260;BME280;8746;49.230;9.220;2023-08-20T01:02:33;100160.16;;;22.14;100.00
17260;BME280;8746;49.230;9.220;2023-08-20T01:05:00;100157.69;;;22.22;100.00
17260;BME280;8746;49.230;9.220;2023-08-20T01:10:55;100155.28;;;22.19;100.00
17260;BME280;8746;49.230;9.220;2023-08-20T01:13:22;100147.91;;;22.21;100.00
17260;BME280;8746;49.230;9.220;2023-08-20T01:15:47;100145.97;;;22.23;100.00
17260;BME280;8746;49.230;9.220;2023-08-20T01:18:13;100155.72;;;22.24;100.00
17260;BME280;8746;49.230;9.220;2023-08-20T01:20:45;100154.03;;;22.23;100.00
17260;BME280;8746;49.230;9.220;2023-08-20T01:24:01;100156.56;;;22.25;100.00
17260;BME280;8746;49.230;9.220;2023-08-20T01:26:48;100150.22;;;22.26;100.00
17260;BME280;8746;49.230;9.220;2023-08-20T01:29:14;100159.25;;;22.25;100.00
17260;BME280;8746;49.230;9.220;2023-08-20T01:31:40;100158.28;;;22.26;100.00
17260;BME280;8746;49.230;9.220;2023-08-20T01:34:05;100165.75;;;22.22;100.00
17260;BME280;8746;49.230;9.220;2023-08-20T01:36:31;100167.47;;;22.23;100.00
17260;BME280;8746;49.230;9.220;2023-08-20T01:38:56;100166.03;;;22.19;100.00
17260;BME280;8746;49.230;9.220;2023-08-20T01:41:22;100173.75;;;22.13;100.00
17260;BME280;8746;49.230;9.220;2023-08-20T01:43:47;100177.78;;;22.07;100.00
17260;BME280;8746;49.230;9.220;2023-08-20T01:46:12;100171.97;;;22.02;100.00
17260;BME280;8746;49.230;9.220;2023-08-20T01:48:38;100170.41;;;21.99;100.00
17260;BME280;8746;49.230;9.220;2023-08-20T01:51:03;100172.28;;;21.87;100.00
17260;BME280;8746;49.230;9.220;2023-08-20T01:53:28;100174.78;;;21.79;100.00
17260;BME280;8746;49.230;9.220;2023-08-20T01:55:54;100177.50;;;21.68;100.00
17260;BME280;8746;49.230;9.220;2023-08-20T01:58:19;100178.28;;;21.58;100.00
17260;BME280;8746;49.230;9.220;2023-08-20T02:00:45;100166.03;;;21.54;100.00
17260;BME280;8746;49.230;9.220;2023-08-20T02:03:11;100168.00;;;21.52;100.00
17260;BME280;8746;49.230;9.220;2023-08-20T02:05:36;100178.47;;;21.55;100.00
17260;BME280;8746;49.230;9.220;2023-08-20T02:08:03;100172.66;;;21.50;100.00
17260;BME280;8746;49.230;9.220;2023-08-20T02:10:28;100173.47;;;21.51;100.00
17260;BME280;8746;49.230;9.220;2023-08-20T02:12:54;100177.88;;;21.52;100.00
17260;BME280;8746;49.230;9.220;2023-08-20T02:15:19;100174.09;;;21.54;100.00
17260;BME280;8746;49.230;9.220;2023-08-20T02:17:44;100168.00;;;21.52;100.00
17260;BME280;8746;49.230;9.220;2023-08-20T02:20:10;100176.56;;;21.46;100.00
17260;BME280;8746;49.230;9.220;2023-08-20T02:22:35;100173.88;;;21.46;100.00
17260;BME280;8746;49.230;9.220;2023-08-20T02:25:01;100166.34;;;21.40;100.00
17260;BME280;8746;49.230;9.220;2023-08-20T02:27:26;100156.34;;;21.30;100.00
17260;BME280;8746;49.230;9.220;2023-08-20T02:29:52;100156.72;;;21.26;100.00
17260;BME280;8746;49.230;9.220;2023-08-20T02:32:17;100151.72;;;21.21;100.00
17260;BME280;8746;49.230;9.220;2023-08-20T02:34:43;100151.03;;;21.19;100.00
17260;BME280;8746;49.230;9.220;2023-08-20T02:37:08;100153.44;;;21.22;100.00
17260;BME280;8746;49.230;9.220;2023-08-20T02:39:34;100161.00;;;21.28;100.00
17260;BME280;8746;49.230;9.220;2023-08-20T02:41:59;100159.53;;;21.24;100.00
17260;BME280;8746;49.230;9.220;2023-08-20T02:44:24;100154.91;;;21.26;100.00
17260;BME280;8746;49.230;9.220;2023-08-20T02:46:49;100149.81;;;21.12;100.00
17260;BME280;8746;49.230;9.220;2023-08-20T02:49:15;100149.81;;;21.12;100.00
17260;BME280;8746;49.230;9.220;2023-08-20T02:51:43;100147.38;;;21.09;100.00
17260;BME280;8746;49.230;9.220;2023-08-20T02:54:08;100148.25;;;21.09;100.00
17260;BME280;8746;49.230;9.220;2023-08-20T02:56:34;100147.28;;;21.10;100.00
17260;BME280;8746;49.230;9.220;2023-08-20T02:58:59;100153.72;;;21.08;100.00
17260;BME280;8746;49.230;9.220;2023-08-20T03:01:26;100145.78;;;21.06;100.00
17260;BME280;8746;49.230;9.220;2023-08-20T03:03:51;100148.97;;;21.00;100.00
17260;BME280;8746;49.230;9.220;2023-08-20T03:06:17;100146.56;;;20.97;100.00
17260;BME280;8746;49.230;9.220;2023-08-20T03:08:42;100150.81;;;21.00;100.00
17260;BME280;8746;49.230;9.220;2023-08-20T03:11:07;100158.13;;;20.97;100.00
17260;BME280;8746;49.230;9.220;2023-08-20T03:13:33;100150.09;;;20.97;100.00
17260;BME280;8746;49.230;9.220;2023-08-20T03:15:58;100159.38;;;20.93;100.00
17260;BME280;8746;49.230;9.220;2023-08-20T03:18:23;100164.00;;;20.91;100.00
17260;BME280;8746;49.230;9.220;2023-08-20T03:20:49;100165.31;;;20.86;100.00
17260;BME280;8746;49.230;9.220;2023-08-20T03:23:14;100160.81;;;20.75;100.00
17260;BME280;8746;49.230;9.220;2023-08-20T03:25:39;100163.50;;;20.75;100.00
17260;BME280;8746;49.230;9.220;2023-08-20T03:28:05;100166.03;;;20.65;100.00
17260;BME280;8746;49.230;9.220;2023-08-20T03:30:30;100158.94;;;20.53;100.00
17260;BME280;8746;49.230;9.220;2023-08-20T03:32:56;100163.69;;;20.49;100.00
17260;BME280;8746;49.230;9.220;2023-08-20T03:35:21;100174.69;;;20.46;100.00
17260;BME280;8746;49.230;9.220;2023-08-20T03:37:47;100171.25;;;20.44;100.00
17260;BME280;8746;49.230;9.220;2023-08-20T03:40:12;100172.75;;;20.48;100.00
17260;BME280;8746;49.230;9.220;2023-08-20T03:42:38;100178.09;;;20.48;100.00
17260;BME280;8746;49.230;9.220;2023-08-20T03:45:04;100177.97;;;20.49;100.00
17260;BME280;8746;49.230;9.220;2023-08-20T03:47:29;100186.63;;;20.53;100.00
17260;BME280;8746;49.230;9.220;2023-08-20T03:49:54;100182.97;;;20.54;100.00
17260;BME280;8746;49.230;9.220;2023-08-20T03:52:20;100181.34;;;20.52;100.00
17260;BME280;8746;49.230;9.220;2023-08-20T03:54:45;100177.72;;;20.53;100.00
17260;BME280;8746;49.230;9.220;2023-08-20T03:57:10;100178.69;;;20.52;100.00
17260;BME280;8746;49.230;9.220;2023-08-20T03:59:36;100182.97;;;20.54;100.00
17260;BME280;8746;49.230;9.220;2023-08-20T04:02:01;100177.34;;;20.46;100.00
17260;BME280;8746;49.230;9.220;2023-08-20T04:04:27;100182.44;;;20.38;100.00
17260;BME280;8746;49.230;9.220;2023-08-20T04:06:53;100184.03;;;20.29;100.00
17260;BME280;8746;49.230;9.220;2023-08-20T04:09:18;100183.75;;;20.32;100.00
17260;BME280;8746;49.230;9.220;2023-08-20T04:11:44;100188.16;;;20.33;100.00
17260;BME280;8746;49.230;9.220;2023-08-20T04:14:09;100179.50;;;20.29;100.00
17260;BME280;8746;49.230;9.220;2023-08-20T04:16:34;100181.22;;;20.30;100.00
17260;BME280;8746;49.230;9.220;2023-08-20T04:19:00;100172.44;;;20.28;100.00
17260;BME280;8746;49.230;9.220;2023-08-20T04:21:25;100171.22;;;20.21;100.00
17260;BME280;8746;49.230;9.220;2023-08-20T04:23:51;100174.63;;;20.23;100.00
17260;BME280;8746;49.230;9.220;2023-08-20T04:26:16;100176.94;;;20.28;100.00
17260;BME280;8746;49.230;9.220;2023-08-20T04:28:41;100181.00;;;20.33;100.00
17260;BME280;8746;49.230;9.220;2023-08-20T04:31:07;100184.16;;;20.39;100.00
17260;BME280;8746;49.230;9.220;2023-08-20T04:33:32;100179.03;;;20.36;100.00
17260;BME280;8746;49.230;9.220;2023-08-20T04:35:57;100186.59;;;20.42;100.00
17260;BME280;8746;49.230;9.220;2023-08-20T04:38:23;100184.16;;;20.39;100.00
17260;BME280;8746;49.230;9.220;2023-08-20T04:40:48;100182.22;;;20.41;100.00
17260;BME280;8746;49.230;9.220;2023-08-20T04:43:15;100188.16;;;20.33;100.00
17260;BME280;8746;49.230;9.220;2023-08-20T04:45:41;100183.88;;;20.19;100.00
17260;BME280;8746;49.230;9.220;2023-08-20T04:48:06;100190.94;;;20.20;100.00
17260;BME280;8746;49.230;9.220;2023-08-20T04:50:32;100195.34;;;20.21;100.00
17260;BME280;8746;49.230;9.220;2023-08-20T04:52:57;100197.75;;;20.24;100.00
17260;BME280;8746;49.230;9.220;2023-08-20T04:55:29;100202.03;;;20.27;100.00
17260;BME280;8746;49.230;9.220;2023-08-20T04:57:54;100201.19;;;20.26;100.00
17260;BME280;8746;49.230;9.220;2023-08-20T05:00:21;100201.91;;;20.28;100.00
17260;BME280;8746;49.230;9.220;2023-08-20T05:02:46;100201.88;;;20.17;100.00
17260;BME280;8746;49.230;9.220;2023-08-20T05:05:11;100207.03;;;20.20;100.00
17260;BME280;8746;49.230;9.220;2023-08-20T05:07:37;100207.25;;;20.28;100.00
17260;BME280;8746;49.230;9.220;2023-08-20T05:10:02;100208.97;;;20.29;100.00
17260;BME280;8746;49.230;9.220;2023-08-20T05:12:28;100213.50;;;20.40;100.00
17260;BME280;8746;49.230;9.220;2023-08-20T05:14:53;100217.16;;;20.39;100.00
17260;BME280;8746;49.230;9.220;2023-08-20T05:17:19;100219.47;;;20.44;100.00
17260;BME280;8746;49.230;9.220;2023-08-20T05:19:44;100220.22;;;20.46;100.00
17260;BME280;8746;49.230;9.220;2023-08-20T05:22:10;100218.50;;;20.45;100.00
17260;BME280;8746;49.230;9.220;2023-08-20T05:24:37;100207.94;;;20.43;100.00
17260;BME280;8746;49.230;9.220;2023-08-20T05:27:23;100191.59;;;20.46;100.00
17260;BME280;8746;49.230;9.220;2023-08-20T05:29:48;100185.88;;;20.51;100.00
17260;BME280;8746;49.230;9.220;2023-08-20T05:32:13;100184.78;;;20.65;100.00
17260;BME280;8746;49.230;9.220;2023-08-20T05:34:41;100193.50;;;20.80;100.00
17260;BME280;8746;49.230;9.220;2023-08-20T05:37:06;100198.38;;;20.86;100.00
17260;BME280;8746;49.230;9.220;2023-08-20T05:39:37;100209.22;;;20.96;100.00
17260;BME280;8746;49.230;9.220;2023-08-20T05:42:03;100228.72;;;21.09;100.00
17260;BME280;8746;49.230;9.220;2023-08-20T05:44:29;100237.97;;;21.17;100.00
17260;BME280;8746;49.230;9.220;2023-08-20T05:46:54;100250.28;;;21.30;100.00
17260;BME280;8746;49.230;9.220;2023-08-20T05:49:19;100248.53;;;21.41;100.00
17260;BME280;8746;49.230;9.220;2023-08-20T05:51:45;100243.06;;;21.42;100.00
17260;BME280;8746;49.230;9.220;2023-08-20T05:54:11;100241.69;;;21.48;100.00
17260;BME280;8746;49.230;9.220;2023-08-20T05:56:37;100242.31;;;21.52;100.00
17260;BME280;8746;49.230;9.220;2023-08-20T05:59:02;100247.06;;;21.71;100.00
17260;BME280;8746;49.230;9.220;2023-08-20T06:01:27;100253.72;;;21.88;100.00
17260;BME280;8746;49.230;9.220;2023-08-20T06:03:53;100259.81;;;21.90;100.00
17260;BME280;8746;49.230;9.220;2023-08-20T06:06:18;100259.09;;;21.88;100.00
17260;BME280;8746;49.230;9.220;2023-08-20T06:08:43;100254.31;;;21.91;100.00
17260;BME280;8746;49.230;9.220;2023-08-20T06:11:09;100251.84;;;22.00;100.00
17260;BME280;8746;49.230;9.220;2023-08-20T06:13:34;100246.22;;;22.03;100.00
17260;BME280;8746;49.230;9.220;2023-08-20T06:15:59;100243.97;;;22.08;100.00
17260;BME280;8746;49.230;9.220;2023-08-20T06:18:24;100245.69;;;22.09;100.00
17260;BME280;8746;49.230;9.220;2023-08-20T06:20:50;100257.56;;;22.06;100.00
17260;BME280;8746;49.230;9.220;2023-08-20T06:23:15;100267.53;;;22.16;100.00
17260;BME280;8746;49.230;9.220;2023-08-20T06:25:40;100258.53;;;22.26;100.00
17260;BME280;8746;49.230;9.220;2023-08-20T06:28:06;100250.75;;;22.23;100.00
17260;BME280;8746;49.230;9.220;2023-08-20T06:30:31;100256.94;;;22.35;100.00
17260;BME280;8746;49.230;9.220;2023-08-20T06:32:56;100257.34;;;22.52;100.00
17260;BME280;8746;49.230;9.220;2023-08-20T06:35:22;100264.50;;;22.63;100.00
17260;BME280;8746;49.230;9.220;2023-08-20T06:37:47;100259.03;;;22.74;100.00
17260;BME280;8746;49.230;9.220;2023-08-20T06:40:12;100259.50;;;22.79;100.00
17260;BME280;8746;49.230;9.220;2023-08-20T06:42:39;100257.06;;;23.07;100.00
17260;BME280;8746;49.230;9.220;2023-08-20T06:45:05;100259.03;;;22.95;100.00
17260;BME280;8746;49.230;9.220;2023-08-20T06:47:30;100261.69;;;23.16;100.00
17260;BME280;8746;49.230;9.220;2023-08-20T06:49:55;100263.44;;;23.06;100.00
17260;BME280;8746;49.230;9.220;2023-08-20T06:52:20;100274.47;;;22.72;100.00
17260;BME280;8746;49.230;9.220;2023-08-20T06:54:46;100270.88;;;22.93;100.00
17260;BME280;8746;49.230;9.220;2023-08-20T06:57:11;100265.63;;;23.12;100.00
17260;BME280;8746;49.230;9.220;2023-08-20T06:59:36;100260.63;;;23.39;100.00
17260;BME280;8746;49.230;9.220;2023-08-20T07:02:02;100259.28;;;23.64;100.00
17260;BME280;8746;49.230;9.220;2023-08-20T07:04:28;100264.69;;;23.83;100.00
17260;BME280;8746;49.230;9.220;2023-08-20T07:06:54;100260.91;;;24.06;100.00
17260;BME280;8746;49.230;9.220;2023-08-20T07:09:19;100268.13;;;24.25;100.00
17260;BME280;8746;49.230;9.220;2023-08-20T07:11:44;100263.44;;;24.46;100.00
17260;BME280;8746;49.230;9.220;2023-08-20T07:14:10;100256.63;;;24.32;100.00
17260;BME280;8746;49.230;9.220;2023-08-20T07:16:35;100262.03;;;24.42;100.00
17260;BME280;8746;49.230;9.220;2023-08-20T07:19:00;100265.56;;;24.13;100.00
17260;BME280;8746;49.230;9.220;2023-08-20T07:21:26;100284.59;;;24.02;100.00
17260;BME280;8746;49.230;9.220;2023-08-20T07:23:51;100287.44;;;24.10;100.00
17260;BME280;8746;49.230;9.220;2023-08-20T07:26:16;100281.75;;;24.04;100.00
17260;BME280;8746;49.230;9.220;2023-08-20T07:28:42;100283.75;;;24.21;100.00
17260;BME280;8746;49.230;9.220;2023-08-20T07:31:24;100281.47;;;24.46;100.00
17260;BME280;8746;49.230;9.220;2023-08-20T07:33:50;100294.22;;;24.44;100.00
17260;BME280;8746;49.230;9.220;2023-08-20T07:36:17;100290.78;;;24.61;99.67
17260;BME280;8746;49.230;9.220;2023-08-20T07:38:43;100303.44;;;24.71;99.61
17260;BME280;8746;49.230;9.220;2023-08-20T07:41:09;100293.97;;;24.67;98.28
17260;BME280;8746;49.230;9.220;2023-08-20T07:43:37;100294.78;;;24.77;97.52
17260;BME280;8746;49.230;9.220;2023-08-20T07:46:04;100297.31;;;24.78;97.52
17260;BME280;8746;49.230;9.220;2023-08-20T07:48:29;100294.22;;;24.73;98.21
17260;BME280;8746;49.230;9.220;2023-08-20T07:50:54;100294.78;;;24.77;98.65
17260;BME280;8746;49.230;9.220;2023-08-20T07:53:20;100289.34;;;24.87;98.68
17260;BME280;8746;49.230;9.220;2023-08-20T07:55:45;100286.06;;;24.93;99.54
17260;BME280;8746;49.230;9.220;2023-08-20T07:58:10;100291.00;;;25.07;97.22
17260;BME280;8746;49.230;9.220;2023-08-20T08:00:36;100298.63;;;25.22;97.76
17260;BME280;8746;49.230;9.220;2023-08-20T08:03:01;100299.81;;;25.09;96.94
17260;BME280;8746;49.230;9.220;2023-08-20T08:05:26;100305.44;;;25.16;96.99
17260;BME280;8746;49.230;9.220;2023-08-20T08:07:52;100304.06;;;25.12;95.71
17260;BME280;8746;49.230;9.220;2023-08-20T08:10:17;100304.09;;;25.02;95.80
17260;BME280;8746;49.230;9.220;2023-08-20T08:12:42;100295.81;;;25.13;95.24
17260;BME280;8746;49.230;9.220;2023-08-20T08:15:08;100295.38;;;25.56;96.11
17260;BME280;8746;49.230;9.220;2023-08-20T08:17:33;100300.41;;;25.69;91.26
17260;BME280;8746;49.230;9.220;2023-08-20T08:19:58;100298.44;;;25.89;92.47
17260;BME280;8746;49.230;9.220;2023-08-20T08:22:24;100291.94;;;26.00;89.38
17260;BME280;8746;49.230;9.220;2023-08-20T08:24:49;100289.22;;;26.00;91.02
17260;BME280;8746;49.230;9.220;2023-08-20T08:27:14;100291.41;;;25.96;90.39
17260;BME280;8746;49.230;9.220;2023-08-20T08:29:40;100288.97;;;26.21;90.19
17260;BME280;8746;49.230;9.220;2023-08-20T08:32:05;100288.97;;;26.21;89.15
17260;BME280;8746;49.230;9.220;2023-08-20T08:34:30;100291.66;;;26.39;89.15
17260;BME280;8746;49.230;9.220;2023-08-20T08:36:56;100282.91;;;26.45;88.12
17260;BME280;8746;49.230;9.220;2023-08-20T08:39:21;100288.66;;;26.68;87.50
17260;BME280;8746;49.230;9.220;2023-08-20T08:41:49;100281.31;;;26.61;84.17
17260;BME280;8746;49.230;9.220;2023-08-20T08:44:16;100296.38;;;26.63;82.93
17260;BME280;8746;49.230;9.220;2023-08-20T08:46:41;100293.94;;;26.52;84.32
17260;BME280;8746;49.230;9.220;2023-08-20T08:49:08;100295.38;;;26.64;85.23
17260;BME280;8746;49.230;9.220;2023-08-20T08:51:36;100295.56;;;26.89;83.58
17260;BME280;8746;49.230;9.220;2023-08-20T08:54:02;100296.78;;;27.21;85.39
17260;BME280;8746;49.230;9.220;2023-08-20T08:56:28;100292.50;;;27.45;82.73
17260;BME280;8746;49.230;9.220;2023-08-20T08:58:54;100288.31;;;27.59;80.86
17260;BME280;8746;49.230;9.220;2023-08-20T09:01:19;100296.31;;;27.68;82.17
17260;BME280;8746;49.230;9.220;2023-08-20T09:03:45;100296.22;;;27.44;79.41
17260;BME280;8746;49.230;9.220;2023-08-20T09:06:11;100298.97;;;27.52;79.22
17260;BME280;8746;49.230;9.220;2023-08-20T09:08:36;100295.59;;;27.58;78.87
17260;BME280;8746;49.230;9.220;2023-08-20T09:11:02;100299.00;;;27.68;79.61
17260;BME280;8746;49.230;9.220;2023-08-20T09:13:38;100290.00;;;27.60;78.71
17260;BME280;8746;49.230;9.220;2023-08-20T09:16:08;100289.88;;;27.61;78.27
17260;BME280;8746;49.230;9.220;2023-08-20T09:18:38;100294.91;;;27.56;78.35
17260;BME280;8746;49.230;9.220;2023-08-20T09:21:06;100292.59;;;27.61;77.08
17260;BME280;8746;49.230;9.220;2023-08-20T09:23:31;100301.59;;;27.78;77.95
17260;BME280;8746;49.230;9.220;2023-08-20T09:26:01;100290.25;;;27.83;75.31
17260;BME280;8746;49.230;9.220;2023-08-20T09:28:27;100298.69;;;27.72;75.24
17260;BME280;8746;49.230;9.220;2023-08-20T09:30:59;100290.00;;;28.11;75.13
17260;BME280;8746;49.230;9.220;2023-08-20T09:33:27;100294.22;;;28.05;75.30
17260;BME280;8746;49.230;9.220;2023-08-20T09:35:53;100299.16;;;28.35;72.86
17260;BME280;8746;49.230;9.220;2023-08-20T09:38:22;100288.28;;;28.68;73.08
17260;BME280;8746;49.230;9.220;2023-08-20T09:40:49;100292.38;;;28.80;71.40
17260;BME280;8746;49.230;9.220;2023-08-20T09:43:17;100291.19;;;28.83;70.31
17260;BME280;8746;49.230;9.220;2023-08-20T09:45:43;100297.81;;;28.80;72.32
17260;BME280;8746;49.230;9.220;2023-08-20T09:48:09;100302.88;;;28.50;71.04
17260;BME280;8746;49.230;9.220;2023-08-20T09:50:36;100300.34;;;28.49;70.34
17260;BME280;8746;49.230;9.220;2023-08-20T09:53:35;100295.63;;;28.51;71.52
17260;BME280;8746;49.230;9.220;2023-08-20T09:56:30;100292.72;;;28.52;73.56
17260;BME280;8746;49.230;9.220;2023-08-20T09:59:00;100292.53;;;28.78;74.26
17260;BME280;8746;49.230;9.220;2023-08-20T10:01:26;100293.34;;;28.95;70.28
17260;BME280;8746;49.230;9.220;2023-08-20T10:03:53;100283.47;;;29.11;68.76
17260;BME280;8746;49.230;9.220;2023-08-20T10:06:19;100290.75;;;29.10;67.90
17260;BME280;8746;49.230;9.220;2023-08-20T10:08:46;100294.63;;;29.33;70.42
17260;BME280;8746;49.230;9.220;2023-08-20T10:11:12;100294.97;;;29.30;67.31
17260;BME280;8746;49.230;9.220;2023-08-20T10:13:37;100295.34;;;29.58;66.41
17260;BME280;8746;49.230;9.220;2023-08-20T10:16:03;100293.69;;;29.80;64.33
17260;BME280;8746;49.230;9.220;2023-08-20T10:18:28;100300.88;;;30.04;61.93
17260;BME280;8746;49.230;9.220;2023-08-20T10:20:57;100302.56;;;30.29;61.18
17260;BME280;8746;49.230;9.220;2023-08-20T10:23:22;100307.97;;;30.37;60.57
17260;BME280;8746;49.230;9.220;2023-08-20T10:25:48;100296.03;;;30.61;60.73
17260;BME280;8746;49.230;9.220;2023-08-20T10:28:24;100297.28;;;30.89;57.29
17260;BME280;8746;49.230;9.220;2023-08-20T10:31:04;100299.34;;;30.86;58.78
17260;BME280;8746;49.230;9.220;2023-08-20T10:36:17;100297.72;;;31.15;58.28
17260;BME280;8746;49.230;9.220;2023-08-20T10:38:46;100291.91;;;31.55;59.21
17260;BME280;8746;49.230;9.220;2023-08-20T10:41:12;100290.56;;;31.44;55.58
17260;BME280;8746;49.230;9.220;2023-08-20T10:43:47;100286.41;;;31.48;56.78
17260;BME280;8746;49.230;9.220;2023-08-20T10:46:18;100276.75;;;31.83;57.08
17260;BME280;8746;49.230;9.220;2023-08-20T10:48:57;100278.00;;;31.50;56.96
17260;BME280;8746;49.230;9.220;2023-08-20T10:51:34;100275.97;;;31.89;56.73
17260;BME280;8746;49.230;9.220;2023-08-20T10:56:45;100275.97;;;31.89;54.50
17260;BME280;8746;49.230;9.220;2023-08-20T10:59:21;100278.91;;;32.31;55.54
17260;BME280;8746;49.230;9.220;2023-08-20T11:01:51;100271.75;;;32.80;52.98
17260;BME280;8746;49.230;9.220;2023-08-20T11:04:21;100268.91;;;32.95;51.68
17260;BME280;8746;49.230;9.220;2023-08-20T11:06:50;100268.06;;;32.94;51.80
17260;BME280;8746;49.230;9.220;2023-08-20T11:09:17;100269.03;;;33.21;50.93
17260;BME280;8746;49.230;9.220;2023-08-20T11:11:43;100272.34;;;33.03;51.37
17260;BME280;8746;49.230;9.220;2023-08-20T11:14:12;100264.88;;;32.90;50.14
17260;BME280;8746;49.230;9.220;2023-08-20T11:16:42;100270.00;;;33.35;49.74
17260;BME280;8746;49.230;9.220;2023-08-20T11:19:09;100262.09;;;33.19;48.92
17260;BME280;8746;49.230;9.220;2023-08-20T11:21:38;100258.94;;;32.80;49.49
17260;BME280;8746;49.230;9.220;2023-08-20T11:24:05;100262.78;;;32.14;50.93
17260;BME280;8746;49.230;9.220;2023-08-20T11:26:35;100260.69;;;32.66;51.88
17260;BME280;8746;49.230;9.220;2023-08-20T11:29:05;100262.97;;;32.91;50.08
17260;BME280;8746;49.230;9.220;2023-08-20T11:31:30;100265.72;;;32.91;48.50
17260;BME280;8746;49.230;9.220;2023-08-20T11:33:56;100251.56;;;33.16;49.65
17260;BME280;8746;49.230;9.220;2023-08-20T11:36:22;100249.00;;;33.43;50.01
17260;BME280;8746;49.230;9.220;2023-08-20T11:38:51;100267.84;;;33.93;48.94
17260;BME280;8746;49.230;9.220;2023-08-20T11:41:18;100256.34;;;34.58;49.98
17260;BME280;8746;49.230;9.220;2023-08-20T11:43:43;100251.22;;;34.81;47.90
17260;BME280;8746;49.230;9.220;2023-08-20T11:46:13;100255.88;;;34.81;47.24
17260;BME280;8746;49.230;9.220;2023-08-20T11:49:07;100254.19;;;34.13;47.50
17260;BME280;8746;49.230;9.220;2023-08-20T11:51:44;100249.53;;;33.93;48.63
17260;BME280;8746;49.230;9.220;2023-08-20T11:54:13;100250.19;;;34.62;46.69
17260;BME280;8746;49.230;9.220;2023-08-20T11:59:12;100242.00;;;34.42;45.46
17260;BME280;8746;49.230;9.220;2023-08-20T12:01:38;100246.59;;;33.95;46.96
17260;BME280;8746;49.230;9.220;2023-08-20T12:04:04;100242.19;;;33.87;47.15
17260;BME280;8746;49.230;9.220;2023-08-20T12:06:29;100245.34;;;34.11;46.67
17260;BME280;8746;49.230;9.220;2023-08-20T12:08:56;100243.63;;;33.83;45.60
17260;BME280;8746;49.230;9.220;2023-08-20T12:11:26;100236.09;;;34.12;45.29
17260;BME280;8746;49.230;9.220;2023-08-20T12:13:51;100246.22;;;34.45;45.33
17260;BME280;8746;49.230;9.220;2023-08-20T12:16:17;100231.03;;;34.22;46.67
17260;BME280;8746;49.230;9.220;2023-08-20T12:18:45;100243.78;;;35.09;44.75
17260;BME280;8746;49.230;9.220;2023-08-20T12:21:11;100239.84;;;34.85;43.19
17260;BME280;8746;49.230;9.220;2023-08-20T12:23:37;100238.16;;;34.90;43.52
17260;BME280;8746;49.230;9.220;2023-08-20T12:26:03;100229.56;;;35.39;42.21
17260;BME280;8746;49.230;9.220;2023-08-20T12:28:28;100234.25;;;36.28;40.36
17260;BME280;8746;49.230;9.220;2023-08-20T12:30:54;100225.72;;;36.42;40.25
17260;BME280;8746;49.230;9.220;2023-08-20T12:33:19;100223.66;;;36.56;38.24
17260;BME280;8746;49.230;9.220;2023-08-20T12:35:46;100226.13;;;37.02;37.00
17260;BME280;8746;49.230;9.220;2023-08-20T12:38:11;100218.78;;;36.58;38.36
17260;BME280;8746;49.230;9.220;2023-08-20T12:40:37;100219.13;;;37.06;36.51
17260;BME280;8746;49.230;9.220;2023-08-20T12:43:03;100217.31;;;36.05;39.06
17260;BME280;8746;49.230;9.220;2023-08-20T12:45:29;100212.94;;;36.48;38.38
17260;BME280;8746;49.230;9.220;2023-08-20T12:47:54;100218.41;;;36.73;36.40
17260;BME280;8746;49.230;9.220;2023-08-20T12:50:20;100214.50;;;36.81;36.16
17260;BME280;8746;49.230;9.220;2023-08-20T12:52:45;100212.41;;;37.32;35.78
17260;BME280;8746;49.230;9.220;2023-08-20T12:55:12;100213.69;;;38.33;33.95
17260;BME280;8746;49.230;9.220;2023-08-20T12:57:52;100210.56;;;38.41;33.78
17260;BME280;8746;49.230;9.220;2023-08-20T13:00:17;100205.91;;;38.42;34.04
17260;BME280;8746;49.230;9.220;2023-08-20T13:02:43;100194.63;;;38.79;33.05
17260;BME280;8746;49.230;9.220;2023-08-20T13:05:09;100199.22;;;39.72;32.92